sensor_id;sensor_type;location;lat;lon;timestamp;pressure;altitude;pressure_sealevel;temperature;humidity
8451;BME280;4262;50.980;13.892;2022-12-07T04:32:45;50844.47;;;-142.97;70.13
8451;BME280;4262;50.980;13.892;2022-12-07T04:35:12;50865.94;;;-142.97;70.01
8451;BME280;4262;50.980;13.892;2022-12-07T04:37:38;50834.72;;;-142.97;69.84
8451;BME280;4262;50.980;13.892;2022-12-07T04:40:07;50836.69;;;-142.97;69.87
8451;BME280;4262;50.980;13.892;2022-12-07T04:42:38;50832.78;;;-142.97;68.99
8451;BME280;4262;50.980;13.892;2022-12-07T04:45:06;50823.03;;;-142.97;68.64
8451;BME280;4262;50.980;13.892;2022-12-07T04:47:35;50809.38;;;-142.97;68.02
8451;BME280;4262;50.980;13.892;2022-12-07T04:50:04;50840.59;;;-142.97;68.46
8451;BME280;4262;50.980;13.892;2022-12-07T04:52:31;50832.78;;;-142.97;67.71
8451;BME280;4262;50.980;13.892;2022-12-07T04:54:58;50799.63;;;-142.97;68.30
8451;BME280;4262;50.980;13.892;2022-12-07T04:57:25;50850.34;;;-142.97;67.93
8451;BME280;4262;50.980;13.892;2022-12-07T04:59:51;50842.53;;;-142.97;68.18
8451;BME280;4262;50.980;13.892;2022-12-07T05:02:18;50819.13;;;-142.97;68.20
8451;BME280;4262;50.980;13.892;2022-12-07T05:04:45;50842.53;;;-142.97;68.45
8451;BME280;4262;50.980;13.892;2022-12-07T05:07:14;50821.09;;;-142.97;67.62
8451;BME280;4262;50.980;13.892;2022-12-07T05:09:41;50828.88;;;-142.97;68.09
8451;BME280;4262;50.980;13.892;2022-12-07T05:12:08;50824.97;;;-142.97;67.86
8451;BME280;4262;50.980;13.892;2022-12-07T05:14:35;50863.97;;;-142.97;67.96
8451;BME280;4262;50.980;13.892;2022-12-07T05:17:01;50846.44;;;-142.97;68.32
8451;BME280;4262;50.980;13.892;2022-12-07T05:19:31;50826.94;;;-142.97;68.08
8451;BME280;4262;50.980;13.892;2022-12-07T05:21:58;50842.53;;;-142.97;67.62
8451;BME280;4262;50.980;13.892;2022-12-07T05:24:26;50823.03;;;-142.97;68.14
8451;BME280;4262;50.980;13.892;2022-12-07T05:26:53;50813.28;;;-142.97;68.47
8451;BME280;4262;50.980;13.892;2022-12-07T05:29:20;50844.47;;;-142.97;68.42
8451;BME280;4262;50.980;13.892;2022-12-07T05:31:47;50860.09;;;-142.97;68.56
8451;BME280;4262;50.980;13.892;2022-12-07T05:34:14;50815.22;;;-142.97;68.71
8451;BME280;4262;50.980;13.892;2022-12-07T05:36:41;50830.84;;;-142.97;69.14
8451;BME280;4262;50.980;13.892;2022-12-07T05:39:08;50848.38;;;-142.97;69.68
8451;BME280;4262;50.980;13.892;2022-12-07T05:41:36;50869.84;;;-142.97;69.79
8451;BME280;4262;50.980;13.892;2022-12-07T05:44:21;50848.38;;;-142.97;70.13
8451;BME280;4262;50.980;13.892;2022-12-07T05:46:48;50834.72;;;-142.97;69.44
8451;BME280;4262;50.980;13.892;2022-12-07T05:49:16;50793.78;;;-142.97;69.87
8451;BME280;4262;50.980;13.892;2022-12-07T05:51:43;50828.88;;;-142.97;69.82
8451;BME280;4262;50.980;13.892;2022-12-07T05:54:11;50791.84;;;-142.97;70.38
8451;BME280;4262;50.980;13.892;2022-12-07T05:56:39;50836.69;;;-142.97;70.50
8451;BME280;4262;50.980;13.892;2022-12-07T05:59:07;50823.03;;;-142.97;69.87
8451;BME280;4262;50.980;13.892;2022-12-07T06:01:51;50823.03;;;-142.97;70.85
8451;BME280;4262;50.980;13.892;2022-12-07T06:04:18;50826.94;;;-142.97;70.49
8451;BME280;4262;50.980;13.892;2022-12-07T06:06:45;50844.47;;;-142.97;70.19
8451;BME280;4262;50.980;13.892;2022-12-07T06:09:12;50834.72;;;-142.97;69.99
8451;BME280;4262;50.980;13.892;2022-12-07T06:11:41;50823.03;;;-142.97;70.16
8451;BME280;4262;50.980;13.892;2022-12-07T06:14:27;50799.63;;;-142.97;70.00
8451;BME280;4262;50.980;13.892;2022-12-07T06:16:53;50819.13;;;-142.97;70.81
8451;BME280;4262;50.980;13.892;2022-12-07T06:19:22;50852.28;;;-142.97;71.03
8451;BME280;4262;50.980;13.892;2022-12-07T06:21:49;50824.97;;;-142.97;70.79
8451;BME280;4262;50.980;13.892;2022-12-07T06:24:17;50832.78;;;-142.97;71.79
8451;BME280;4262;50.980;13.892;2022-12-07T06:26:46;50832.78;;;-142.97;71.64
8451;BME280;4262;50.980;13.892;2022-12-07T06:29:13;50799.63;;;-142.97;71.54
8451;BME280;4262;50.980;13.892;2022-12-07T06:31:40;50824.97;;;-142.97;72.14
8451;BME280;4262;50.980;13.892;2022-12-07T06:34:09;50844.47;;;-142.97;72.27
8451;BME280;4262;50.980;13.892;2022-12-07T06:36:37;50846.44;;;-142.97;72.24
8451;BME280;4262;50.980;13.892;2022-12-07T06:39:04;50856.19;;;-142.97;71.81
8451;BME280;4262;50.980;13.892;2022-12-07T06:41:31;50813.28;;;-142.97;71.37
8451;BME280;4262;50.980;13.892;2022-12-07T06:44:01;50842.53;;;-142.97;70.66
8451;BME280;4262;50.980;13.892;2022-12-07T06:46:28;50842.53;;;-142.97;71.32
8451;BME280;4262;50.980;13.892;2022-12-07T06:48:56;50828.88;;;-142.97;71.36
8451;BME280;4262;50.980;13.892;2022-12-07T06:51:23;50865.94;;;-142.97;71.61
8451;BME280;4262;50.980;13.892;2022-12-07T06:53:52;50840.59;;;-142.97;70.84
8451;BME280;4262;50.980;13.892;2022-12-07T06:56:19;50815.22;;;-142.97;69.44
8451;BME280;4262;50.980;13.892;2022-12-07T06:58:46;50834.72;;;-142.97;71.12
8451;BME280;4262;50.980;13.892;2022-12-07T07:01:16;50832.78;;;-142.97;70.78
8451;BME280;4262;50.980;13.892;2022-12-07T07:03:46;50828.88;;;-142.97;69.74
8451;BME280;4262;50.980;13.892;2022-12-07T07:06:13;50830.84;;;-142.97;68.84
8451;BME280;4262;50.980;13.892;2022-12-07T07:08:41;50850.34;;;-142.97;69.32
8451;BME280;4262;50.980;13.892;2022-12-07T07:11:08;50807.44;;;-142.97;69.82
8451;BME280;4262;50.980;13.892;2022-12-07T07:13:37;50832.78;;;-142.97;69.31
8451;BME280;4262;50.980;13.892;2022-12-07T07:16:05;50840.59;;;-142.97;70.02
8451;BME280;4262;50.980;13.892;2022-12-07T07:18:35;50856.19;;;-142.97;70.88
8451;BME280;4262;50.980;13.892;2022-12-07T07:21:02;50844.47;;;-142.97;71.45
8451;BME280;4262;50.980;13.892;2022-12-07T07:23:31;50846.44;;;-142.97;71.85
8451;BME280;4262;50.980;13.892;2022-12-07T07:25:58;50834.72;;;-142.97;72.22
8451;BME280;4262;50.980;13.892;2022-12-07T07:28:25;50828.88;;;-142.97;73.07
8451;BME280;4262;50.980;13.892;2022-12-07T07:30:52;50826.94;;;-142.97;72.78
8451;BME280;4262;50.980;13.892;2022-12-07T07:33:20;50836.69;;;-142.97;73.49
8451;BME280;4262;50.980;13.892;2022-12-07T07:35:48;50838.63;;;-142.97;74.84
8451;BME280;4262;50.980;13.892;2022-12-07T07:38:15;50821.09;;;-142.97;76.46
8451;BME280;4262;50.980;13.892;2022-12-07T07:40:42;50832.78;;;-142.97;77.33
8451;BME280;4262;50.980;13.892;2022-12-07T07:43:09;50832.78;;;-142.97;77.96
8451;BME280;4262;50.980;13.892;2022-12-07T07:45:36;50854.22;;;-142.97;78.72
8451;BME280;4262;50.980;13.892;2022-12-07T07:48:03;50856.19;;;-142.97;78.38
8451;BME280;4262;50.980;13.892;2022-12-07T07:50:31;50819.13;;;-142.97;78.66
8451;BME280;4262;50.980;13.892;2022-12-07T07:53:00;50826.94;;;-142.97;78.60
8451;BME280;4262;50.980;13.892;2022-12-07T07:55:26;50828.88;;;-142.97;78.33
8451;BME280;4262;50.980;13.892;2022-12-07T07:57:54;50821.09;;;-142.97;79.02
8451;BME280;4262;50.980;13.892;2022-12-07T08:00:21;50842.53;;;-142.97;78.90
8451;BME280;4262;50.980;13.892;2022-12-07T08:02:48;50819.13;;;-142.97;78.76
8451;BME280;4262;50.980;13.892;2022-12-07T08:05:17;50828.88;;;-142.97;79.23
8451;BME280;4262;50.980;13.892;2022-12-07T08:07:44;50793.78;;;-142.97;78.47
8451;BME280;4262;50.980;13.892;2022-12-07T08:10:13;50838.63;;;-142.97;78.01
8451;BME280;4262;50.980;13.892;2022-12-07T08:12:41;50823.03;;;-142.97;78.35
8451;BME280;4262;50.980;13.892;2022-12-07T08:15:23;50807.44;;;-142.97;77.53
8451;BME280;4262;50.980;13.892;2022-12-07T08:17:51;50815.22;;;-142.97;77.96
8451;BME280;4262;50.980;13.892;2022-12-07T08:20:18;50805.50;;;-142.97;78.01
8451;BME280;4262;50.980;13.892;2022-12-07T08:22:45;50858.13;;;-142.97;78.13
8451;BME280;4262;50.980;13.892;2022-12-07T08:25:14;50826.94;;;-142.97;77.89
8451;BME280;4262;50.980;13.892;2022-12-07T08:27:41;50823.03;;;-142.97;77.87
8451;BME280;4262;50.980;13.892;2022-12-07T08:30:08;50848.38;;;-142.97;78.01
8451;BME280;4262;50.980;13.892;2022-12-07T08:32:37;50830.84;;;-142.97;77.28
8451;BME280;4262;50.980;13.892;2022-12-07T08:35:04;50815.22;;;-142.97;76.92
8451;BME280;4262;50.980;13.892;2022-12-07T08:37:32;50793.78;;;-142.97;76.97
8451;BME280;4262;50.980;13.892;2022-12-07T08:39:58;50821.09;;;-142.97;76.60
8451;BME280;4262;50.980;13.892;2022-12-07T08:42:27;50832.78;;;-142.97;75.11
8451;BME280;4262;50.980;13.892;2022-12-07T08:44:57;50854.22;;;-142.97;74.67
8451;BME280;4262;50.980;13.892;2022-12-07T08:47:24;50815.22;;;-142.97;74.52
8451;BME280;4262;50.980;13.892;2022-12-07T08:49:53;50838.63;;;-142.97;74.88
8451;BME280;4262;50.980;13.892;2022-12-07T08:52:21;50838.63;;;-142.97;74.08
8451;BME280;4262;50.980;13.892;2022-12-07T08:54:50;50832.78;;;-142.97;73.62
8451;BME280;4262;50.980;13.892;2022-12-07T08:57:16;50842.53;;;-142.97;72.41
8451;BME280;4262;50.980;13.892;2022-12-07T08:59:44;50842.53;;;-142.97;72.86
8451;BME280;4262;50.980;13.892;2022-12-07T09:02:12;50819.13;;;-142.97;72.25
8451;BME280;4262;50.980;13.892;2022-12-07T09:04:38;50811.34;;;-142.97;71.75
8451;BME280;4262;50.980;13.892;2022-12-07T09:07:05;50813.28;;;-142.97;70.89
8451;BME280;4262;50.980;13.892;2022-12-07T09:09:32;50848.38;;;-142.97;70.38
8451;BME280;4262;50.980;13.892;2022-12-07T09:11:59;50817.19;;;-142.97;70.47
8451;BME280;4262;50.980;13.892;2022-12-07T09:14:28;50817.19;;;-142.97;70.86
8451;BME280;4262;50.980;13.892;2022-12-07T09:17:05;50836.69;;;-142.97;70.91
8451;BME280;4262;50.980;13.892;2022-12-07T09:19:33;50834.72;;;-142.97;70.35
8451;BME280;4262;50.980;13.892;2022-12-07T09:22:00;50813.28;;;-142.97;70.08
8451;BME280;4262;50.980;13.892;2022-12-07T09:24:29;50832.78;;;-142.97;69.84
8451;BME280;4262;50.980;13.892;2022-12-07T09:26:56;50824.97;;;-142.97;69.82
8451;BME280;4262;50.980;13.892;2022-12-07T09:29:24;50824.97;;;-142.97;70.20
8451;BME280;4262;50.980;13.892;2022-12-07T09:31:51;50832.78;;;-142.97;70.42
8451;BME280;4262;50.980;13.892;2022-12-07T09:34:21;50865.94;;;-142.97;70.39
8451;BME280;4262;50.980;13.892;2022-12-07T09:36:48;50821.09;;;-142.97;70.01
8451;BME280;4262;50.980;13.892;2022-12-07T09:39:15;50787.94;;;-142.97;69.43
8451;BME280;4262;50.980;13.892;2022-12-07T09:41:44;50797.69;;;-142.97;69.59
8451;BME280;4262;50.980;13.892;2022-12-07T09:44:21;50836.69;;;-142.97;68.57
8451;BME280;4262;50.980;13.892;2022-12-07T09:46:49;50801.59;;;-142.97;68.51
8451;BME280;4262;50.980;13.892;2022-12-07T09:49:22;50823.03;;;-142.97;68.42
8451;BME280;4262;50.980;13.892;2022-12-07T09:52:01;50824.97;;;-142.97;67.68
8451;BME280;4262;50.980;13.892;2022-12-07T09:54:30;50799.63;;;-142.97;67.38
8451;BME280;4262;50.980;13.892;2022-12-07T09:56:58;50801.59;;;-142.97;67.34
8451;BME280;4262;50.980;13.892;2022-12-07T09:59:25;50834.72;;;-142.97;66.40
8451;BME280;4262;50.980;13.892;2022-12-07T10:01:52;50819.13;;;-142.97;66.81
8451;BME280;4262;50.980;13.892;2022-12-07T10:04:23;50828.88;;;-142.97;66.31
8451;BME280;4262;50.980;13.892;2022-12-07T10:06:51;50799.63;;;-142.97;66.49
8451;BME280;4262;50.980;13.892;2022-12-07T10:09:20;50830.84;;;-142.97;65.75
8451;BME280;4262;50.980;13.892;2022-12-07T10:12:05;50858.13;;;-142.97;66.13
8451;BME280;4262;50.980;13.892;2022-12-07T10:14:36;50780.13;;;-142.97;65.38
8451;BME280;4262;50.980;13.892;2022-12-07T10:17:28;50797.69;;;-142.97;63.20
8451;BME280;4262;50.980;13.892;2022-12-07T10:20:21;50801.59;;;-142.97;62.57
8451;BME280;4262;50.980;13.892;2022-12-07T10:23:05;50704.09;;;-142.97;62.57
8451;BME280;4262;50.980;13.892;2022-12-07T10:25:35;50524.72;;;-142.97;59.78
8451;BME280;4262;50.980;13.892;2022-12-07T10:28:13;50809.38;;;-142.97;55.52
8451;BME280;4262;50.980;13.892;2022-12-07T10:30:52;50801.59;;;-142.97;55.85
8451;BME280;4262;50.980;13.892;2022-12-07T10:33:36;50747.00;;;-142.97;57.72
8451;BME280;4262;50.980;13.892;2022-12-07T10:36:21;50735.28;;;-142.97;56.06
8451;BME280;4262;50.980;13.892;2022-12-07T10:38:51;50725.53;;;-142.97;55.63
8451;BME280;4262;50.980;13.892;2022-12-07T10:41:18;50799.63;;;-142.97;55.30
8451;BME280;4262;50.980;13.892;2022-12-07T10:43:50;50793.78;;;-142.97;57.44
8451;BME280;4262;50.980;13.892;2022-12-07T10:46:32;50805.50;;;-142.97;59.43
8451;BME280;4262;50.980;13.892;2022-12-07T10:52:13;50805.50;;;-142.97;62.73
8451;BME280;4262;50.980;13.892;2022-12-07T10:54:51;50836.69;;;-142.97;63.25
8451;BME280;4262;50.980;13.892;2022-12-07T10:57:38;50803.53;;;-142.97;63.11
8451;BME280;4262;50.980;13.892;2022-12-07T11:00:13;50823.03;;;-142.97;64.17
8451;BME280;4262;50.980;13.892;2022-12-07T11:02:54;50824.97;;;-142.97;63.60
8451;BME280;4262;50.980;13.892;2022-12-07T11:05:30;50844.47;;;-142.97;64.42
8451;BME280;4262;50.980;13.892;2022-12-07T11:08:13;50789.88;;;-142.97;64.48
8451;BME280;4262;50.980;13.892;2022-12-07T11:10:47;50817.19;;;-142.97;64.77
8451;BME280;4262;50.980;13.892;2022-12-07T11:13:23;50834.72;;;-142.97;64.83
8451;BME280;4262;50.980;13.892;2022-12-07T11:16:05;50848.38;;;-142.97;64.96
8451;BME280;4262;50.980;13.892;2022-12-07T11:18:39;50801.59;;;-142.97;64.84
8451;BME280;4262;50.980;13.892;2022-12-07T11:21:17;50824.97;;;-142.97;64.96
8451;BME280;4262;50.980;13.892;2022-12-07T11:23:52;50844.47;;;-142.97;65.20
8451;BME280;4262;50.980;13.892;2022-12-07T11:26:34;50846.44;;;-142.97;64.57
8451;BME280;4262;50.980;13.892;2022-12-07T11:29:18;50856.19;;;-142.97;65.04
8451;BME280;4262;50.980;13.892;2022-12-07T11:31:56;50836.69;;;-142.97;65.10
8451;BME280;4262;50.980;13.892;2022-12-07T11:34:36;50819.13;;;-142.97;65.49
8451;BME280;4262;50.980;13.892;2022-12-07T11:37:10;50836.69;;;-142.97;65.71
8451;BME280;4262;50.980;13.892;2022-12-07T11:39:44;50824.97;;;-142.97;66.56
8451;BME280;4262;50.980;13.892;2022-12-07T11:42:16;50885.44;;;-142.97;66.37
8451;BME280;4262;50.980;13.892;2022-12-07T11:44:52;50809.38;;;-142.97;67.02
8451;BME280;4262;50.980;13.892;2022-12-07T11:47:25;50848.38;;;-142.97;67.60
8451;BME280;4262;50.980;13.892;2022-12-07T11:49:57;50832.78;;;-142.97;69.60
8451;BME280;4262;50.980;13.892;2022-12-07T11:52:43;50862.03;;;-142.97;74.21
8451;BME280;4262;50.980;13.892;2022-12-07T11:55:19;50838.63;;;-142.97;74.44
8451;BME280;4262;50.980;13.892;2022-12-07T11:57:51;50815.22;;;-142.97;75.33
8451;BME280;4262;50.980;13.892;2022-12-07T12:00:20;50803.53;;;-142.97;75.74
8451;BME280;4262;50.980;13.892;2022-12-07T12:02:51;50830.84;;;-142.97;75.05
8451;BME280;4262;50.980;13.892;2022-12-07T12:05:22;50824.97;;;-142.97;74.99
8451;BME280;4262;50.980;13.892;2022-12-07T12:07:54;50809.38;;;-142.97;74.53
8451;BME280;4262;50.980;13.892;2022-12-07T12:10:35;50834.72;;;-142.97;73.92
8451;BME280;4262;50.980;13.892;2022-12-07T12:13:21;50860.09;;;-142.97;73.65
8451;BME280;4262;50.980;13.892;2022-12-07T12:16:07;50832.78;;;-142.97;73.61
8451;BME280;4262;50.980;13.892;2022-12-07T12:18:51;50811.34;;;-142.97;73.87
8451;BME280;4262;50.980;13.892;2022-12-07T12:21:22;50846.44;;;-142.97;72.89
8451;BME280;4262;50.980;13.892;2022-12-07T12:23:56;50803.53;;;-142.97;72.69
8451;BME280;4262;50.980;13.892;2022-12-07T12:26:29;50838.63;;;-142.97;72.01
8451;BME280;4262;50.980;13.892;2022-12-07T12:28:59;50832.78;;;-142.97;72.02
8451;BME280;4262;50.980;13.892;2022-12-07T12:31:35;50807.44;;;-142.97;71.91
8451;BME280;4262;50.980;13.892;2022-12-07T12:34:31;50830.84;;;-142.97;70.87
8451;BME280;4262;50.980;13.892;2022-12-07T12:36:58;50869.84;;;-142.97;70.79
8451;BME280;4262;50.980;13.892;2022-12-07T12:39:25;50836.69;;;-142.97;71.56
8451;BME280;4262;50.980;13.892;2022-12-07T12:41:55;50824.97;;;-142.97;71.93
8451;BME280;4262;50.980;13.892;2022-12-07T12:45:16;50860.09;;;-142.97;72.82
8451;BME280;4262;50.980;13.892;2022-12-07T12:47:57;50830.84;;;-142.97;74.61
8451;BME280;4262;50.980;13.892;2022-12-07T12:50:30;50830.84;;;-142.97;76.77
8451;BME280;4262;50.980;13.892;2022-12-07T12:59:24;50832.78;;;-142.97;79.67
8451;BME280;4262;50.980;13.892;2022-12-07T13:01:54;50780.13;;;-142.97;79.87
8451;BME280;4262;50.980;13.892;2022-12-07T13:04:25;50858.13;;;-142.97;78.84
8451;BME280;4262;50.980;13.892;2022-12-07T13:06:54;50823.03;;;-142.97;79.09
8451;BME280;4262;50.980;13.892;2022-12-07T13:09:23;50854.22;;;-142.97;80.13
8451;BME280;4262;50.980;13.892;2022-12-07T13:11:58;50852.28;;;-142.97;80.22
8451;BME280;4262;50.980;13.892;2022-12-07T13:14:43;50873.72;;;-142.97;80.21
8451;BME280;4262;50.980;13.892;2022-12-07T13:20:46;50807.44;;;-142.97;79.78
8451;BME280;4262;50.980;13.892;2022-12-07T13:23:18;50856.19;;;-142.97;79.72
8451;BME280;4262;50.980;13.892;2022-12-07T13:25:49;50854.22;;;-142.97;79.89
8451;BME280;4262;50.980;13.892;2022-12-07T13:28:19;50817.19;;;-142.97;79.51
8451;BME280;4262;50.980;13.892;2022-12-07T13:31:01;50854.22;;;-142.97;78.41
8451;BME280;4262;50.980;13.892;2022-12-07T13:33:34;50850.34;;;-142.97;79.12
8451;BME280;4262;50.980;13.892;2022-12-07T13:36:02;50838.63;;;-142.97;78.40
8451;BME280;4262;50.980;13.892;2022-12-07T13:38:32;50834.72;;;-142.97;78.71
8451;BME280;4262;50.980;13.892;2022-12-07T13:41:04;50869.84;;;-142.97;78.44
8451;BME280;4262;50.980;13.892;2022-12-07T13:43:42;50850.34;;;-142.97;77.39
8451;BME280;4262;50.980;13.892;2022-12-07T13:46:11;50832.78;;;-142.97;76.66
8451;BME280;4262;50.980;13.892;2022-12-07T13:48:44;50830.84;;;-142.97;77.50
8451;BME280;4262;50.980;13.892;2022-12-07T13:51:18;50848.38;;;-142.97;77.21
8451;BME280;4262;50.980;13.892;2022-12-07T13:53:47;50844.47;;;-142.97;76.08
8451;BME280;4262;50.980;13.892;2022-12-07T13:56:14;50856.19;;;-142.97;75.37
8451;BME280;4262;50.980;13.892;2022-12-07T13:58:41;50828.88;;;-142.97;75.74
8451;BME280;4262;50.980;13.892;2022-12-07T14:01:09;50838.63;;;-142.97;75.52
8451;BME280;4262;50.980;13.892;2022-12-07T14:03:37;50865.94;;;-142.97;75.92
8451;BME280;4262;50.980;13.892;2022-12-07T14:06:07;50852.28;;;-142.97;75.68
8451;BME280;4262;50.980;13.892;2022-12-07T14:08:38;50836.69;;;-142.97;74.94
8451;BME280;4262;50.980;13.892;2022-12-07T14:11:06;50844.47;;;-142.97;76.14
8451;BME280;4262;50.980;13.892;2022-12-07T14:13:39;50865.94;;;-142.97;76.35
8451;BME280;4262;50.980;13.892;2022-12-07T14:16:22;50840.59;;;-142.97;76.21
8451;BME280;4262;50.980;13.892;2022-12-07T14:18:54;50844.47;;;-142.97;77.03
8451;BME280;4262;50.980;13.892;2022-12-07T14:21:22;50826.94;;;-142.97;77.39
8451;BME280;4262;50.980;13.892;2022-12-07T14:24:09;50826.94;;;-142.97;78.30
8451;BME280;4262;50.980;13.892;2022-12-07T14:26:37;50813.28;;;-142.97;78.37
8451;BME280;4262;50.980;13.892;2022-12-07T14:29:31;50799.63;;;-142.97;77.12
8451;BME280;4262;50.980;13.892;2022-12-07T14:32:21;50854.22;;;-142.97;76.10
8451;BME280;4262;50.980;13.892;2022-12-07T14:34:59;50854.22;;;-142.97;76.64
8451;BME280;4262;50.980;13.892;2022-12-07T14:37:27;50848.38;;;-142.97;76.05
8451;BME280;4262;50.980;13.892;2022-12-07T14:39:55;50854.22;;;-142.97;75.42
8451;BME280;4262;50.980;13.892;2022-12-07T14:42:23;50846.44;;;-142.97;75.61
8451;BME280;4262;50.980;13.892;2022-12-07T14:44:51;50871.78;;;-142.97;75.39
8451;BME280;4262;50.980;13.892;2022-12-07T14:47:18;50826.94;;;-142.97;74.70
8451;BME280;4262;50.980;13.892;2022-12-07T14:49:45;50856.19;;;-142.97;74.21
8451;BME280;4262;50.980;13.892;2022-12-07T14:52:16;50830.84;;;-142.97;73.83
8451;BME280;4262;50.980;13.892;2022-12-07T14:54:44;50838.63;;;-142.97;74.12
8451;BME280;4262;50.980;13.892;2022-12-07T14:57:11;50856.19;;;-142.97;74.21
8451;BME280;4262;50.980;13.892;2022-12-07T14:59:38;50865.94;;;-142.97;74.40
8451;BME280;4262;50.980;13.892;2022-12-07T15:02:05;50881.53;;;-142.97;75.04
8451;BME280;4262;50.980;13.892;2022-12-07T15:04:33;50811.34;;;-142.97;74.97
8451;BME280;4262;50.980;13.892;2022-12-07T15:07:02;50846.44;;;-142.97;74.77
8451;BME280;4262;50.980;13.892;2022-12-07T15:09:30;50830.84;;;-142.97;74.77
8451;BME280;4262;50.980;13.892;2022-12-07T15:11:57;50842.53;;;-142.97;75.27
8451;BME280;4262;50.980;13.892;2022-12-07T15:14:24;50844.47;;;-142.97;75.68
8451;BME280;4262;50.980;13.892;2022-12-07T15:16:51;50863.97;;;-142.97;76.39
8451;BME280;4262;50.980;13.892;2022-12-07T15:19:19;50844.47;;;-142.97;76.20
8451;BME280;4262;50.980;13.892;2022-12-07T15:21:48;50838.63;;;-142.97;76.19
8451;BME280;4262;50.980;13.892;2022-12-07T15:24:15;50846.44;;;-142.97;76.32
8451;BME280;4262;50.980;13.892;2022-12-07T15:26:44;50836.69;;;-142.97;75.85
8451;BME280;4262;50.980;13.892;2022-12-07T15:29:11;50824.97;;;-142.97;76.20
8451;BME280;4262;50.980;13.892;2022-12-07T15:31:40;50830.84;;;-142.97;76.31
8451;BME280;4262;50.980;13.892;2022-12-07T15:34:07;50879.59;;;-142.97;77.27
8451;BME280;4262;50.980;13.892;2022-12-07T15:36:34;50801.59;;;-142.97;76.42
8451;BME280;4262;50.980;13.892;2022-12-07T15:39:02;50873.72;;;-142.97;76.53
8451;BME280;4262;50.980;13.892;2022-12-07T15:41:29;50844.47;;;-142.97;76.16
8451;BME280;4262;50.980;13.892;2022-12-07T15:43:58;50854.22;;;-142.97;75.32
8451;BME280;4262;50.980;13.892;2022-12-07T15:46:42;50838.63;;;-142.97;75.02
8451;BME280;4262;50.980;13.892;2022-12-07T15:49:12;50844.47;;;-142.97;75.42
8451;BME280;4262;50.980;13.892;2022-12-07T15:51:40;50881.53;;;-142.97;75.81
8451;BME280;4262;50.980;13.892;2022-12-07T15:54:11;50836.69;;;-142.97;75.72
8451;BME280;4262;50.980;13.892;2022-12-07T15:56:38;50846.44;;;-142.97;76.05
8451;BME280;4262;50.980;13.892;2022-12-07T15:59:07;50832.78;;;-142.97;76.02
8451;BME280;4262;50.980;13.892;2022-12-07T16:01:34;50860.09;;;-142.97;75.81
8451;BME280;4262;50.980;13.892;2022-12-07T16:04:00;50828.88;;;-142.97;76.05
8451;BME280;4262;50.980;13.892;2022-12-07T16:06:27;50830.84;;;-142.97;75.53
8451;BME280;4262;50.980;13.892;2022-12-07T16:08:54;50830.84;;;-142.97;75.38
8451;BME280;4262;50.980;13.892;2022-12-07T16:11:21;50863.97;;;-142.97;75.42
8451;BME280;4262;50.980;13.892;2022-12-07T16:13:49;50826.94;;;-142.97;75.56
8451;BME280;4262;50.980;13.892;2022-12-07T16:16:18;50862.03;;;-142.97;75.54
8451;BME280;4262;50.980;13.892;2022-12-07T16:18:49;50838.63;;;-142.97;74.78
8451;BME280;4262;50.980;13.892;2022-12-07T16:21:17;50862.03;;;-142.97;75.36
8451;BME280;4262;50.980;13.892;2022-12-07T16:23:44;50860.09;;;-142.97;74.90
8451;BME280;4262;50.980;13.892;2022-12-07T16:26:13;50828.88;;;-142.97;74.52
8451;BME280;4262;50.980;13.892;2022-12-07T16:28:41;50844.47;;;-142.97;74.65
8451;BME280;4262;50.980;13.892;2022-12-07T16:31:09;50828.88;;;-142.97;74.72
8451;BME280;4262;50.980;13.892;2022-12-07T16:33:39;50846.44;;;-142.97;73.89
8451;BME280;4262;50.980;13.892;2022-12-07T16:36:08;50854.22;;;-142.97;74.02
8451;BME280;4262;50.980;13.892;2022-12-07T16:38:36;50828.88;;;-142.97;73.87
8451;BME280;4262;50.980;13.892;2022-12-07T16:41:04;50832.78;;;-142.97;73.42
8451;BME280;4262;50.980;13.892;2022-12-07T16:43:30;50842.53;;;-142.97;73.31
8451;BME280;4262;50.980;13.892;2022-12-07T16:45:58;50838.63;;;-142.97;73.59
8451;BME280;4262;50.980;13.892;2022-12-07T16:48:26;50842.53;;;-142.97;73.58
8451;BME280;4262;50.980;13.892;2022-12-07T16:50:54;50813.28;;;-142.97;73.83
8451;BME280;4262;50.980;13.892;2022-12-07T16:53:22;50856.19;;;-142.97;72.53
8451;BME280;4262;50.980;13.892;2022-12-07T16:55:51;50819.13;;;-142.97;73.17
8451;BME280;4262;50.980;13.892;2022-12-07T16:58:18;50836.69;;;-142.97;72.90
8451;BME280;4262;50.980;13.892;2022-12-07T17:00:45;50860.09;;;-142.97;73.50
8451;BME280;4262;50.980;13.892;2022-12-07T17:03:12;50838.63;;;-142.97;73.63
8451;BME280;4262;50.980;13.892;2022-12-07T17:05:40;50860.09;;;-142.97;73.25
8451;BME280;4262;50.980;13.892;2022-12-07T17:08:09;50879.59;;;-142.97;73.18
8451;BME280;4262;50.980;13.892;2022-12-07T17:10:39;50887.38;;;-142.97;73.46
8451;BME280;4262;50.980;13.892;2022-12-07T17:13:07;50842.53;;;-142.97;72.81
8451;BME280;4262;50.980;13.892;2022-12-07T17:16:00;50867.88;;;-142.97;73.82
8451;BME280;4262;50.980;13.892;2022-12-07T17:18:29;50846.44;;;-142.97;73.30
8451;BME280;4262;50.980;13.892;2022-12-07T17:21:02;50865.94;;;-142.97;74.09
8451;BME280;4262;50.980;13.892;2022-12-07T17:23:31;50811.34;;;-142.97;73.45
8451;BME280;4262;50.980;13.892;2022-12-07T17:26:04;50856.19;;;-142.97;73.01
8451;BME280;4262;50.980;13.892;2022-12-07T17:28:32;50830.84;;;-142.97;73.08
8451;BME280;4262;50.980;13.892;2022-12-07T17:30:58;50871.78;;;-142.97;73.68
8451;BME280;4262;50.980;13.892;2022-12-07T17:33:25;50863.97;;;-142.97;73.64
8451;BME280;4262;50.980;13.892;2022-12-07T17:35:53;50854.22;;;-142.97;73.06
8451;BME280;4262;50.980;13.892;2022-12-07T17:38:20;50846.44;;;-142.97;73.73
8451;BME280;4262;50.980;13.892;2022-12-07T17:40:48;50785.97;;;-142.97;73.66
8451;BME280;4262;50.980;13.892;2022-12-07T17:43:15;50801.59;;;-142.97;73.39
8451;BME280;4262;50.980;13.892;2022-12-07T17:45:42;50852.28;;;-142.97;73.36
8451;BME280;4262;50.980;13.892;2022-12-07T17:48:09;50873.72;;;-142.97;72.38
8451;BME280;4262;50.980;13.892;2022-12-07T17:50:38;50862.03;;;-142.97;72.79
8451;BME280;4262;50.980;13.892;2022-12-07T17:53:22;50848.38;;;-142.97;73.67